sensor_id;sensor_type;location;lat;lon;timestamp;pressure;altitude;pressure_sealevel;temperature;humidity
70930;BME280;58588;48.102;19.682;2024-02-04T00:00:13;99693.03;;;9.93;100.00
70930;BME280;58588;48.102;19.682;2024-02-04T00:03:15;99693.59;;;9.80;100.00
70930;BME280;58588;48.102;19.682;2024-02-04T00:06:17;99706.06;;;9.81;100.00
70930;BME280;58588;48.102;19.682;2024-02-04T00:09:19;99689.94;;;9.73;100.00
70930;BME280;58588;48.102;19.682;2024-02-04T00:12:22;99712.78;;;9.77;100.00
70930;BME280;58588;48.102;19.682;2024-02-04T00:15:24;99698.03;;;9.65;100.00
70930;BME280;58588;48.102;19.682;2024-02-04T00:18:26;99695.56;;;9.55;100.00
70930;BME280;58588;48.102;19.682;2024-02-04T00:21:28;99694.25;;;9.51;100.00
70930;BME280;58588;48.102;19.682;2024-02-04T00:24:30;99701.28;;;9.52;100.00
70930;BME280;58588;48.102;19.682;2024-02-04T00:27:34;99725.84;;;9.57;100.00
70930;BME280;58588;48.102;19.682;2024-02-04T00:30:36;99733.19;;;9.72;100.00
70930;BME280;58588;48.102;19.682;2024-02-04T00:33:38;99724.19;;;9.40;100.00
70930;BME280;58588;48.102;19.682;2024-02-04T00:36:40;99732.56;;;9.53;100.00
70930;BME280;58588;48.102;19.682;2024-02-04T00:39:42;99717.13;;;9.47;100.00
70930;BME280;58588;48.102;19.682;2024-02-04T00:42:45;99710.91;;;9.47;99.65
70930;BME280;58588;48.102;19.682;2024-02-04T00:45:47;99722.03;;;9.35;100.00
70930;BME280;58588;48.102;19.682;2024-02-04T00:48:50;99722.72;;;9.29;100.00
70930;BME280;58588;48.102;19.682;2024-02-04T00:51:53;99717.28;;;9.54;99.33
70930;BME280;58588;48.102;19.682;2024-02-04T00:54:55;99708.25;;;9.38;100.00
70930;BME280;58588;48.102;19.682;2024-02-04T00:57:59;99709.13;;;9.23;100.00
70930;BME280;58588;48.102;19.682;2024-02-04T01:01:03;99697.53;;;9.30;100.00
70930;BME280;58588;48.102;19.682;2024-02-04T01:04:05;99696.00;;;9.36;100.00
70930;BME280;58588;48.102;19.682;2024-02-04T01:07:07;99716.66;;;9.35;100.00
70930;BME280;58588;48.102;19.682;2024-02-04T01:10:09;99710.75;;;9.48;100.00
70930;BME280;58588;48.102;19.682;2024-02-04T01:13:13;99725.47;;;9.69;98.84
70930;BME280;58588;48.102;19.682;2024-02-04T01:16:15;99711.03;;;9.61;97.85
70930;BME280;58588;48.102;19.682;2024-02-04T01:19:17;99714.78;;;9.44;98.31
70930;BME280;58588;48.102;19.682;2024-02-04T01:22:19;99718.47;;;9.51;98.21
70930;BME280;58588;48.102;19.682;2024-02-04T01:25:25;99710.06;;;9.46;98.33
70930;BME280;58588;48.102;19.682;2024-02-04T01:28:29;99694.13;;;9.76;97.31
70930;BME280;58588;48.102;19.682;2024-02-04T01:31:31;99699.56;;;9.59;96.80
70930;BME280;58588;48.102;19.682;2024-02-04T01:34:33;99681.47;;;9.45;98.24
70930;BME280;58588;48.102;19.682;2024-02-04T01:37:35;99679.91;;;9.59;97.74
70930;BME280;58588;48.102;19.682;2024-02-04T01:40:37;99671.09;;;9.42;98.38
70930;BME280;58588;48.102;19.682;2024-02-04T01:43:40;99672.94;;;9.42;97.71
70930;BME280;58588;48.102;19.682;2024-02-04T01:46:43;99674.28;;;9.29;98.12
70930;BME280;58588;48.102;19.682;2024-02-04T01:49:45;99670.09;;;9.27;97.89
70930;BME280;58588;48.102;19.682;2024-02-04T01:52:47;99667.09;;;9.30;98.78
70930;BME280;58588;48.102;19.682;2024-02-04T01:55:50;99665.00;;;9.48;97.43
70930;BME280;58588;48.102;19.682;2024-02-04T01:58:53;99653.16;;;9.57;96.62
70930;BME280;58588;48.102;19.682;2024-02-04T02:01:55;99666.22;;;9.29;97.08
70930;BME280;58588;48.102;19.682;2024-02-04T02:04:59;99660.38;;;9.26;97.89
70930;BME280;58588;48.102;19.682;2024-02-04T02:08:01;99666.75;;;9.25;98.06
70930;BME280;58588;48.102;19.682;2024-02-04T02:11:05;99675.31;;;9.36;98.44
70930;BME280;58588;48.102;19.682;2024-02-04T02:14:13;99663.09;;;9.57;96.64
70930;BME280;58588;48.102;19.682;2024-02-04T02:17:20;99660.31;;;9.42;97.04
70930;BME280;58588;48.102;19.682;2024-02-04T02:20:35;99669.09;;;9.36;97.76
70930;BME280;58588;48.102;19.682;2024-02-04T02:23:48;99653.09;;;9.43;97.90
70930;BME280;58588;48.102;19.682;2024-02-04T02:26:57;99641.31;;;9.35;98.44
70930;BME280;58588;48.102;19.682;2024-02-04T02:29:59;99628.97;;;9.18;98.73
70930;BME280;58588;48.102;19.682;2024-02-04T02:33:05;99614.97;;;9.23;98.83
70930;BME280;58588;48.102;19.682;2024-02-04T02:36:13;99624.94;;;9.14;99.52
70930;BME280;58588;48.102;19.682;2024-02-04T02:39:19;99636.13;;;9.34;98.96
70930;BME280;58588;48.102;19.682;2024-02-04T02:42:25;99639.19;;;9.23;98.29
70930;BME280;58588;48.102;19.682;2024-02-04T02:45:31;99647.09;;;9.16;97.63
70930;BME280;58588;48.102;19.682;2024-02-04T02:48:34;99642.88;;;9.22;97.45
70930;BME280;58588;48.102;19.682;2024-02-04T02:51:36;99641.34;;;9.27;97.50
70930;BME280;58588;48.102;19.682;2024-02-04T02:54:38;99648.25;;;9.30;98.68
70930;BME280;58588;48.102;19.682;2024-02-04T02:57:42;99656.19;;;9.15;98.72
70930;BME280;58588;48.102;19.682;2024-02-04T03:00:45;99649.28;;;9.21;98.22
70930;BME280;58588;48.102;19.682;2024-02-04T03:03:47;99644.25;;;9.18;98.76
70930;BME280;58588;48.102;19.682;2024-02-04T03:06:49;99627.44;;;9.24;98.29
70930;BME280;58588;48.102;19.682;2024-02-04T03:09:52;99625.59;;;9.24;98.26
70930;BME280;58588;48.102;19.682;2024-02-04T03:12:56;99634.50;;;9.17;98.66
70930;BME280;58588;48.102;19.682;2024-02-04T03:15:58;99630.81;;;9.18;98.79
70930;BME280;58588;48.102;19.682;2024-02-04T03:19:00;99641.56;;;9.18;98.97
70930;BME280;58588;48.102;19.682;2024-02-04T03:22:03;99631.13;;;9.23;99.15
70930;BME280;58588;48.102;19.682;2024-02-04T03:25:06;99637.22;;;9.08;98.95
70930;BME280;58588;48.102;19.682;2024-02-04T03:28:09;99635.03;;;9.12;98.82
70930;BME280;58588;48.102;19.682;2024-02-04T03:31:11;99634.97;;;9.28;98.72
70930;BME280;58588;48.102;19.682;2024-02-04T03:34:13;99625.94;;;9.52;97.24
70930;BME280;58588;48.102;19.682;2024-02-04T03:37:15;99622.34;;;9.37;96.86
70930;BME280;58588;48.102;19.682;2024-02-04T03:40:17;99623.34;;;9.36;96.80
70930;BME280;58588;48.102;19.682;2024-02-04T03:43:21;99608.81;;;9.14;97.31
70930;BME280;58588;48.102;19.682;2024-02-04T03:46:23;99618.13;;;9.34;97.64
70930;BME280;58588;48.102;19.682;2024-02-04T03:49:25;99628.13;;;9.09;97.63
70930;BME280;58588;48.102;19.682;2024-02-04T03:52:27;99603.47;;;8.98;98.40
70930;BME280;58588;48.102;19.682;2024-02-04T03:55:29;99623.50;;;8.95;97.68
70930;BME280;58588;48.102;19.682;2024-02-04T03:58:34;99611.34;;;9.07;97.92
70930;BME280;58588;48.102;19.682;2024-02-04T04:01:36;99627.69;;;8.90;97.04
70930;BME280;58588;48.102;19.682;2024-02-04T04:04:39;99624.13;;;8.97;98.13
70930;BME280;58588;48.102;19.682;2024-02-04T04:07:42;99628.56;;;8.82;97.07
70930;BME280;58588;48.102;19.682;2024-02-04T04:10:44;99624.03;;;8.82;98.83
70930;BME280;58588;48.102;19.682;2024-02-04T04:13:48;99626.34;;;8.94;98.53
70930;BME280;58588;48.102;19.682;2024-02-04T04:16:50;99624.44;;;9.10;99.18
70930;BME280;58588;48.102;19.682;2024-02-04T04:19:52;99632.94;;;9.30;98.47
70930;BME280;58588;48.102;19.682;2024-02-04T04:22:54;99637.53;;;9.53;96.26
70930;BME280;58588;48.102;19.682;2024-02-04T04:25:56;99638.53;;;9.21;97.13
70930;BME280;58588;48.102;19.682;2024-02-04T04:29:00;99633.38;;;9.50;96.61
70930;BME280;58588;48.102;19.682;2024-02-04T04:32:02;99612.81;;;9.57;96.75
70930;BME280;58588;48.102;19.682;2024-02-04T04:35:04;99610.50;;;9.46;97.00
70930;BME280;58588;48.102;19.682;2024-02-04T04:38:06;99621.56;;;9.51;96.46
70930;BME280;58588;48.102;19.682;2024-02-04T04:41:08;99599.75;;;9.07;99.02
70930;BME280;58588;48.102;19.682;2024-02-04T04:44:12;99611.72;;;9.35;99.12
70930;BME280;58588;48.102;19.682;2024-02-04T04:47:15;99623.63;;;9.41;99.48
70930;BME280;58588;48.102;19.682;2024-02-04T04:50:17;99619.13;;;9.33;100.00
70930;BME280;58588;48.102;19.682;2024-02-04T04:53:19;99610.72;;;9.36;100.00
70930;BME280;58588;48.102;19.682;2024-02-04T04:56:21;99596.28;;;9.29;100.00
70930;BME280;58588;48.102;19.682;2024-02-04T04:59:24;99585.41;;;9.54;100.00
70930;BME280;58588;48.102;19.682;2024-02-04T05:02:26;99604.38;;;9.60;99.76
70930;BME280;58588;48.102;19.682;2024-02-04T05:05:28;99607.22;;;9.59;99.26
70930;BME280;58588;48.102;19.682;2024-02-04T05:08:30;99603.69;;;9.27;99.88
70930;BME280;58588;48.102;19.682;2024-02-04T05:11:32;99604.97;;;9.48;100.00
70930;BME280;58588;48.102;19.682;2024-02-04T05:14:35;99606.44;;;9.50;100.00
70930;BME280;58588;48.102;19.682;2024-02-04T05:17:37;99615.75;;;9.39;100.00
70930;BME280;58588;48.102;19.682;2024-02-04T05:20:39;99601.13;;;9.65;100.00
70930;BME280;58588;48.102;19.682;2024-02-04T05:23:41;99595.34;;;9.76;100.00
70930;BME280;58588;48.102;19.682;2024-02-04T05:26:43;99585.59;;;9.75;100.00
70930;BME280;58588;48.102;19.682;2024-02-04T05:29:47;99585.97;;;9.95;100.00
70930;BME280;58588;48.102;19.682;2024-02-04T05:32:49;99590.03;;;9.68;100.00
70930;BME280;58588;48.102;19.682;2024-02-04T05:35:51;99605.75;;;9.56;100.00
70930;BME280;58588;48.102;19.682;2024-02-04T05:38:53;99605.34;;;9.68;100.00
70930;BME280;58588;48.102;19.682;2024-02-04T05:41:55;99605.72;;;9.87;100.00
70930;BME280;58588;48.102;19.682;2024-02-04T05:44:58;99629.19;;;9.79;100.00
70930;BME280;58588;48.102;19.682;2024-02-04T05:48:01;99621.97;;;10.02;100.00
70930;BME280;58588;48.102;19.682;2024-02-04T05:51:03;99618.66;;;10.15;99.08
70930;BME280;58588;48.102;19.682;2024-02-04T05:54:05;99628.91;;;9.97;99.61
70930;BME280;58588;48.102;19.682;2024-02-04T05:57:07;99642.19;;;9.98;100.00
70930;BME280;58588;48.102;19.682;2024-02-04T06:00:12;99642.13;;;9.75;100.00
70930;BME280;58588;48.102;19.682;2024-02-04T06:03:15;99628.28;;;9.55;100.00
70930;BME280;58588;48.102;19.682;2024-02-04T06:06:18;99646.91;;;9.96;100.00
70930;BME280;58588;48.102;19.682;2024-02-04T06:09:20;99638.41;;;9.84;100.00
70930;BME280;58588;48.102;19.682;2024-02-04T06:12:22;99669.25;;;9.74;100.00
70930;BME280;58588;48.102;19.682;2024-02-04T06:15:28;99671.13;;;9.65;100.00
70930;BME280;58588;48.102;19.682;2024-02-04T06:18:30;99663.50;;;9.77;100.00
70930;BME280;58588;48.102;19.682;2024-02-04T06:21:32;99661.47;;;9.79;100.00
70930;BME280;58588;48.102;19.682;2024-02-04T06:24:34;99648.72;;;9.42;100.00
70930;BME280;58588;48.102;19.682;2024-02-04T06:27:37;99671.63;;;9.69;100.00
70930;BME280;58588;48.102;19.682;2024-02-04T06:30:42;99666.69;;;9.80;100.00
70930;BME280;58588;48.102;19.682;2024-02-04T06:33:44;99660.06;;;9.60;100.00
70930;BME280;58588;48.102;19.682;2024-02-04T06:36:46;99671.75;;;9.75;100.00
70930;BME280;58588;48.102;19.682;2024-02-04T06:39:48;99656.38;;;9.53;100.00
70930;BME280;58588;48.102;19.682;2024-02-04T06:42:51;99667.53;;;9.81;100.00
70930;BME280;58588;48.102;19.682;2024-02-04T06:45:54;99680.09;;;9.88;100.00
70930;BME280;58588;48.102;19.682;2024-02-04T06:48:58;99656.63;;;9.74;100.00
70930;BME280;58588;48.102;19.682;2024-02-04T06:52:01;99665.03;;;9.71;100.00
70930;BME280;58588;48.102;19.682;2024-02-04T06:55:05;99680.09;;;9.57;100.00
70930;BME280;58588;48.102;19.682;2024-02-04T06:58:07;99678.41;;;9.56;100.00
70930;BME280;58588;48.102;19.682;2024-02-04T07:01:12;99691.50;;;9.99;100.00
70930;BME280;58588;48.102;19.682;2024-02-04T07:04:14;99675.38;;;10.13;100.00
70930;BME280;58588;48.102;19.682;2024-02-04T07:07:17;99688.88;;;9.82;100.00
70930;BME280;58588;48.102;19.682;2024-02-04T07:10:20;99717.53;;;10.06;100.00
70930;BME280;58588;48.102;19.682;2024-02-04T07:13:22;99702.75;;;10.33;100.00
70930;BME280;58588;48.102;19.682;2024-02-04T07:16:26;99705.69;;;10.47;100.00
70930;BME280;58588;48.102;19.682;2024-02-04T07:19:29;99706.44;;;10.55;100.00
70930;BME280;58588;48.102;19.682;2024-02-04T07:22:31;99700.88;;;10.80;100.00
70930;BME280;58588;48.102;19.682;2024-02-04T07:25:33;99696.56;;;10.48;100.00
70930;BME280;58588;48.102;19.682;2024-02-04T07:28:36;99711.41;;;10.66;100.00
70930;BME280;58588;48.102;19.682;2024-02-04T07:31:41;99707.78;;;10.97;99.19
70930;BME280;58588;48.102;19.682;2024-02-04T07:34:44;99700.41;;;10.76;99.14
70930;BME280;58588;48.102;19.682;2024-02-04T07:37:46;99711.63;;;11.17;97.97
70930;BME280;58588;48.102;19.682;2024-02-04T07:40:48;99683.59;;;10.89;97.58
70930;BME280;58588;48.102;19.682;2024-02-04T07:43:51;99720.41;;;10.96;98.47
70930;BME280;58588;48.102;19.682;2024-02-04T07:46:55;99694.66;;;10.94;97.63
70930;BME280;58588;48.102;19.682;2024-02-04T07:49:57;99686.41;;;11.10;97.26
70930;BME280;58588;48.102;19.682;2024-02-04T07:53:00;99691.91;;;11.32;96.82
70930;BME280;58588;48.102;19.682;2024-02-04T07:56:02;99666.88;;;11.23;97.53
70930;BME280;58588;48.102;19.682;2024-02-04T07:59:07;99671.88;;;10.96;97.45
70930;BME280;58588;48.102;19.682;2024-02-04T08:02:10;99665.13;;;11.30;97.79
70930;BME280;58588;48.102;19.682;2024-02-04T08:05:13;99664.22;;;10.70;98.43
70930;BME280;58588;48.102;19.682;2024-02-04T08:08:16;99664.31;;;10.77;99.07
70930;BME280;58588;48.102;19.682;2024-02-04T08:11:20;99670.69;;;10.99;99.13
70930;BME280;58588;48.102;19.682;2024-02-04T08:14:23;99666.88;;;11.38;98.08
70930;BME280;58588;48.102;19.682;2024-02-04T08:17:27;99664.34;;;11.21;97.96
70930;BME280;58588;48.102;19.682;2024-02-04T08:20:31;99673.13;;;11.23;97.75
70930;BME280;58588;48.102;19.682;2024-02-04T08:23:33;99690.78;;;11.11;98.27
70930;BME280;58588;48.102;19.682;2024-02-04T08:26:36;99690.59;;;11.13;97.67
70930;BME280;58588;48.102;19.682;2024-02-04T08:29:38;99691.16;;;11.38;97.80
70930;BME280;58588;48.102;19.682;2024-02-04T08:32:42;99682.13;;;11.01;97.57
70930;BME280;58588;48.102;19.682;2024-02-04T08:35:44;99698.06;;;11.55;97.62
70930;BME280;58588;48.102;19.682;2024-02-04T08:38:46;99693.41;;;11.64;96.71
70930;BME280;58588;48.102;19.682;2024-02-04T08:41:48;99701.59;;;11.70;96.52
70930;BME280;58588;48.102;19.682;2024-02-04T08:44:50;99717.34;;;11.82;96.58
70930;BME280;58588;48.102;19.682;2024-02-04T08:47:54;99702.91;;;11.60;96.35
70930;BME280;58588;48.102;19.682;2024-02-04T08:50:56;99694.69;;;11.68;96.81
70930;BME280;58588;48.102;19.682;2024-02-04T08:53:58;99702.78;;;11.38;97.65
70930;BME280;58588;48.102;19.682;2024-02-04T08:57:00;99695.91;;;11.36;96.58
70930;BME280;58588;48.102;19.682;2024-02-04T09:00:03;99696.19;;;11.26;97.51
70930;BME280;58588;48.102;19.682;2024-02-04T09:03:10;99686.78;;;11.37;97.20
70930;BME280;58588;48.102;19.682;2024-02-04T09:06:13;99671.25;;;11.24;97.44
70930;BME280;58588;48.102;19.682;2024-02-04T09:09:19;99668.38;;;11.40;96.86
70930;BME280;58588;48.102;19.682;2024-02-04T09:12:22;99681.25;;;11.74;95.97
70930;BME280;58588;48.102;19.682;2024-02-04T09:15:24;99664.06;;;11.61;95.38
70930;BME280;58588;48.102;19.682;2024-02-04T09:18:28;99663.13;;;12.19;94.65
70930;BME280;58588;48.102;19.682;2024-02-04T09:21:31;99648.50;;;12.35;93.19
70930;BME280;58588;48.102;19.682;2024-02-04T09:24:33;99642.22;;;11.92;93.47
70930;BME280;58588;48.102;19.682;2024-02-04T09:27:35;99636.00;;;12.34;93.57
70930;BME280;58588;48.102;19.682;2024-02-04T09:30:37;99653.44;;;12.10;92.02
70930;BME280;58588;48.102;19.682;2024-02-04T09:33:41;99642.88;;;12.58;91.60
70930;BME280;58588;48.102;19.682;2024-02-04T09:36:43;99669.97;;;12.65;91.48
70930;BME280;58588;48.102;19.682;2024-02-04T09:39:45;99653.47;;;12.81;90.75
70930;BME280;58588;48.102;19.682;2024-02-04T09:42:48;99657.50;;;12.92;90.15
70930;BME280;58588;48.102;19.682;2024-02-04T09:45:50;99656.84;;;12.62;90.54
70930;BME280;58588;48.102;19.682;2024-02-04T09:48:55;99646.72;;;12.98;88.60
70930;BME280;58588;48.102;19.682;2024-02-04T09:51:59;99637.69;;;13.19;88.39
70930;BME280;58588;48.102;19.682;2024-02-04T09:55:05;99639.56;;;12.84;89.46
70930;BME280;58588;48.102;19.682;2024-02-04T09:58:08;99644.22;;;13.25;88.73
70930;BME280;58588;48.102;19.682;2024-02-04T10:01:11;99637.22;;;13.09;88.34
70930;BME280;58588;48.102;19.682;2024-02-04T10:04:15;99648.84;;;13.03;87.34
70930;BME280;58588;48.102;19.682;2024-02-04T10:07:18;99638.94;;;12.89;87.34
70930;BME280;58588;48.102;19.682;2024-02-04T10:10:20;99651.69;;;12.67;89.71
70930;BME280;58588;48.102;19.682;2024-02-04T10:13:22;99631.84;;;13.16;87.63
70930;BME280;58588;48.102;19.682;2024-02-04T10:16:24;99608.75;;;12.85;88.50
70930;BME280;58588;48.102;19.682;2024-02-04T10:19:29;99599.31;;;12.74;88.59
70930;BME280;58588;48.102;19.682;2024-02-04T10:22:31;99596.69;;;12.88;89.51
70930;BME280;58588;48.102;19.682;2024-02-04T10:25:33;99607.25;;;13.10;88.32
70930;BME280;58588;48.102;19.682;2024-02-04T10:28:36;99610.00;;;13.52;87.68
70930;BME280;58588;48.102;19.682;2024-02-04T10:31:39;99608.50;;;13.49;86.50
70930;BME280;58588;48.102;19.682;2024-02-04T10:34:44;99601.72;;;13.73;85.61
70930;BME280;58588;48.102;19.682;2024-02-04T10:37:46;99602.00;;;13.37;85.50
70930;BME280;58588;48.102;19.682;2024-02-04T10:40:49;99581.88;;;13.53;84.53
70930;BME280;58588;48.102;19.682;2024-02-04T10:43:54;99583.72;;;14.40;83.67
70930;BME280;58588;48.102;19.682;2024-02-04T10:46:58;99580.78;;;14.68;82.02
70930;BME280;58588;48.102;19.682;2024-02-04T10:50:05;99566.59;;;14.46;81.71
70930;BME280;58588;48.102;19.682;2024-02-04T10:53:10;99553.34;;;13.63;80.95
70930;BME280;58588;48.102;19.682;2024-02-04T10:56:19;99543.22;;;14.45;80.80
70930;BME280;58588;48.102;19.682;2024-02-04T10:59:24;99547.19;;;14.62;79.57
70930;BME280;58588;48.102;19.682;2024-02-04T11:02:27;99534.63;;;14.81;78.07
70930;BME280;58588;48.102;19.682;2024-02-04T11:05:32;99545.00;;;15.17;77.29
70930;BME280;58588;48.102;19.682;2024-02-04T11:08:37;99539.63;;;14.91;76.20
70930;BME280;58588;48.102;19.682;2024-02-04T11:11:40;99540.06;;;14.81;75.63
70930;BME280;58588;48.102;19.682;2024-02-04T11:14:45;99553.84;;;14.86;75.08
70930;BME280;58588;48.102;19.682;2024-02-04T11:18:27;99560.31;;;14.79;74.57
70930;BME280;58588;48.102;19.682;2024-02-04T11:21:55;99565.50;;;15.00;73.40
70930;BME280;58588;48.102;19.682;2024-02-04T11:25:19;99559.28;;;15.44;73.42
70930;BME280;58588;48.102;19.682;2024-02-04T11:28:28;99557.06;;;15.79;71.84
70930;BME280;58588;48.102;19.682;2024-02-04T11:31:31;99551.38;;;15.81;71.20
70930;BME280;58588;48.102;19.682;2024-02-04T11:34:34;99528.25;;;15.20;71.32
70930;BME280;58588;48.102;19.682;2024-02-04T11:37:38;99523.78;;;15.39;70.80
70930;BME280;58588;48.102;19.682;2024-02-04T11:40:42;99519.78;;;15.48;70.07
70930;BME280;58588;48.102;19.682;2024-02-04T11:43:45;99520.56;;;15.62;69.82
70930;BME280;58588;48.102;19.682;2024-02-04T11:46:48;99522.50;;;16.37;68.14
70930;BME280;58588;48.102;19.682;2024-02-04T11:49:54;99509.88;;;16.24;67.30
70930;BME280;58588;48.102;19.682;2024-02-04T11:53:05;99502.06;;;16.77;66.34
70930;BME280;58588;48.102;19.682;2024-02-04T11:56:07;99497.50;;;16.03;65.44
70930;BME280;58588;48.102;19.682;2024-02-04T11:59:09;99496.09;;;16.87;65.35
70930;BME280;58588;48.102;19.682;2024-02-04T12:02:15;99486.94;;;17.00;63.71
70930;BME280;58588;48.102;19.682;2024-02-04T12:05:18;99487.38;;;16.97;63.15
70930;BME280;58588;48.102;19.682;2024-02-04T12:08:22;99482.41;;;17.42;63.87
70930;BME280;58588;48.102;19.682;2024-02-04T12:11:25;99478.28;;;16.23;62.65
70930;BME280;58588;48.102;19.682;2024-02-04T12:14:28;99481.75;;;15.48;65.46
70930;BME280;58588;48.102;19.682;2024-02-04T12:17:30;99484.00;;;15.51;66.77
70930;BME280;58588;48.102;19.682;2024-02-04T12:20:34;99483.47;;;15.74;65.15
70930;BME280;58588;48.102;19.682;2024-02-04T12:23:38;99500.44;;;16.01;64.81
70930;BME280;58588;48.102;19.682;2024-02-04T12:26:40;99500.81;;;16.05;64.55
70930;BME280;58588;48.102;19.682;2024-02-04T12:29:43;99504.81;;;15.77;65.04
70930;BME280;58588;48.102;19.682;2024-02-04T12:32:45;99521.09;;;15.77;65.54
70930;BME280;58588;48.102;19.682;2024-02-04T12:35:57;99526.78;;;15.69;65.46
70930;BME280;58588;48.102;19.682;2024-02-04T12:39:02;99520.06;;;15.27;65.94
70930;BME280;58588;48.102;19.682;2024-02-04T12:42:08;99516.97;;;15.62;65.70
70930;BME280;58588;48.102;19.682;2024-02-04T12:45:10;99522.34;;;14.79;65.48
70930;BME280;58588;48.102;19.682;2024-02-04T12:48:14;99506.28;;;14.70;66.77
70930;BME280;58588;48.102;19.682;2024-02-04T12:51:23;99496.63;;;14.94;66.86
70930;BME280;58588;48.102;19.682;2024-02-04T12:54:27;99483.91;;;15.33;66.44
70930;BME280;58588;48.102;19.682;2024-02-04T12:57:29;99482.38;;;14.99;67.03
70930;BME280;58588;48.102;19.682;2024-02-04T13:00:31;99477.16;;;14.97;66.55
70930;BME280;58588;48.102;19.682;2024-02-04T13:03:34;99473.91;;;15.27;66.47
70930;BME280;58588;48.102;19.682;2024-02-04T13:06:39;99455.88;;;15.01;67.12
70930;BME280;58588;48.102;19.682;2024-02-04T13:09:42;99462.53;;;15.43;66.84
70930;BME280;58588;48.102;19.682;2024-02-04T13:12:45;99466.59;;;15.27;67.23
70930;BME280;58588;48.102;19.682;2024-02-04T13:15:47;99475.44;;;15.10;67.09
70930;BME280;58588;48.102;19.682;2024-02-04T13:18:52;99462.81;;;14.84;68.10
70930;BME280;58588;48.102;19.682;2024-02-04T13:21:54;99464.84;;;15.40;67.41
70930;BME280;58588;48.102;19.682;2024-02-04T13:24:58;99460.75;;;15.31;68.27
70930;BME280;58588;48.102;19.682;2024-02-04T13:28:00;99467.81;;;14.93;69.13
70930;BME280;58588;48.102;19.682;2024-02-04T13:31:04;99460.09;;;15.29;68.86
70930;BME280;58588;48.102;19.682;2024-02-04T13:34:06;99462.31;;;15.07;69.15
70930;BME280;58588;48.102;19.682;2024-02-04T13:37:08;99454.44;;;14.92;68.33
70930;BME280;58588;48.102;19.682;2024-02-04T13:40:13;99440.81;;;14.98;69.43
70930;BME280;58588;48.102;19.682;2024-02-04T13:43:15;99451.72;;;14.92;68.92
70930;BME280;58588;48.102;19.682;2024-02-04T13:46:17;99440.22;;;14.96;70.06
70930;BME280;58588;48.102;19.682;2024-02-04T13:49:19;99455.13;;;14.74;70.19
70930;BME280;58588;48.102;19.682;2024-02-04T13:52:21;99446.75;;;14.82;69.84
70930;BME280;58588;48.102;19.682;2024-02-04T13:55:25;99444.25;;;14.74;70.81
70930;BME280;58588;48.102;19.682;2024-02-04T13:58:27;99436.94;;;14.75;70.93
70930;BME280;58588;48.102;19.682;2024-02-04T14:01:30;99428.59;;;14.83;70.16
70930;BME280;58588;48.102;19.682;2024-02-04T14:04:32;99423.50;;;14.93;70.32
70930;BME280;58588;48.102;19.682;2024-02-04T14:07:34;99417.00;;;15.07;70.11
70930;BME280;58588;48.102;19.682;2024-02-04T14:10:37;99436.19;;;14.41;71.37
70930;BME280;58588;48.102;19.682;2024-02-04T14:13:39;99420.16;;;14.19;71.88
70930;BME280;58588;48.102;19.682;2024-02-04T14:16:42;99417.69;;;13.85;72.72
70930;BME280;58588;48.102;19.682;2024-02-04T14:19:44;99426.03;;;14.03;73.54
70930;BME280;58588;48.102;19.682;2024-02-04T14:22:49;99434.38;;;13.82;73.60
70930;BME280;58588;48.102;19.682;2024-02-04T14:25:53;99433.34;;;13.76;74.32
70930;BME280;58588;48.102;19.682;2024-02-04T14:28:56;99445.03;;;14.10;74.29
70930;BME280;58588;48.102;19.682;2024-02-04T14:31:58;99433.94;;;14.25;73.85
70930;BME280;58588;48.102;19.682;2024-02-04T14:35:01;99425.19;;;13.50;75.13
70930;BME280;58588;48.102;19.682;2024-02-04T14:38:05;99451.25;;;13.51;75.57
70930;BME280;58588;48.102;19.682;2024-02-04T14:41:09;99430.63;;;13.76;75.63
70930;BME280;58588;48.102;19.682;2024-02-04T14:44:12;99428.13;;;13.68;75.86
70930;BME280;58588;48.102;19.682;2024-02-04T14:47:15;99424.16;;;13.44;76.38
70930;BME280;58588;48.102;19.682;2024-02-04T14:50:17;99415.22;;;13.77;75.52
70930;BME280;58588;48.102;19.682;2024-02-04T14:53:21;99411.84;;;13.48;76.87
70930;BME280;58588;48.102;19.682;2024-02-04T14:56:24;99415.00;;;13.58;76.92
70930;BME280;58588;48.102;19.682;2024-02-04T14:59:27;99431.84;;;13.41;76.72
70930;BME280;58588;48.102;19.682;2024-02-04T15:02:29;99424.16;;;13.37;77.33
70930;BME280;58588;48.102;19.682;2024-02-04T15:05:31;99411.44;;;13.31;77.13
70930;BME280;58588;48.102;19.682;2024-02-04T15:08:33;99394.75;;;13.21;77.34
70930;BME280;58588;48.102;19.682;2024-02-04T15:11:37;99398.31;;;13.42;77.16
70930;BME280;58588;48.102;19.682;2024-02-04T15:14:40;99402.56;;;12.96;77.72
70930;BME280;58588;48.102;19.682;2024-02-04T15:17:42;99402.16;;;13.06;77.78
70930;BME280;58588;48.102;19.682;2024-02-04T15:20:45;99383.03;;;13.07;78.27
70930;BME280;58588;48.102;19.682;2024-02-04T15:23:48;99375.13;;;13.19;78.11
70930;BME280;58588;48.102;19.682;2024-02-04T15:26:56;99367.41;;;13.16;78.56
70930;BME280;58588;48.102;19.682;2024-02-04T15:30:02;99359.91;;;13.18;78.19
70930;BME280;58588;48.102;19.682;2024-02-04T15:33:07;99374.75;;;12.61;80.27
70930;BME280;58588;48.102;19.682;2024-02-04T15:36:09;99385.84;;;12.73;80.58
70930;BME280;58588;48.102;19.682;2024-02-04T15:39:11;99374.72;;;12.48;81.61
70930;BME280;58588;48.102;19.682;2024-02-04T15:42:16;99382.19;;;12.52;81.82
70930;BME280;58588;48.102;19.682;2024-02-04T15:45:19;99387.22;;;12.55;82.13
70930;BME280;58588;48.102;19.682;2024-02-04T15:48:24;99381.38;;;12.52;83.44
70930;BME280;58588;48.102;19.682;2024-02-04T15:51:31;99385.31;;;12.49;84.16
70930;BME280;58588;48.102;19.682;2024-02-04T15:54:34;99390.97;;;12.20;85.31
70930;BME280;58588;48.102;19.682;2024-02-04T15:57:38;99386.75;;;12.11;85.47
70930;BME280;58588;48.102;19.682;2024-02-04T16:00:42;99395.97;;;12.23;86.61